Time;durP1;ratioP1;P1;durP2;ratioP2;P2;SDS_P1;SDS_P2;PMS_P1;PMS_P2;Temp;Humidity;BMP_temperature;BMP_pressure;BME280_temperature;BME280_humidity;BME280_pressure;Samples;Min_cycle;Max_cycle;Signal;HPM_P1;HPM_P2
2022/06/18 00:00:16;;;;;;;12.13;5.43;;;;;;;17.44;100.00;101033.72;7392674;19;20534;-58
2022/06/18 00:02:49;;;;;;;7.47;4.67;;;;;;;17.42;100.00;101030.19;7402511;19;20400;-59
2022/06/18 00:05:20;;;;;;;15.13;5.70;;;;;;;17.45;100.00;101016.31;7379652;19;20438;-58
2022/06/18 00:07:52;;;;;;;10.93;4.87;;;;;;;17.40;100.00;101017.09;7401778;19;20399;-59
2022/06/18 00:10:25;;;;;;;9.60;6.53;;;;;;;17.39;100.00;101010.13;7385156;19;20518;-59
2022/06/18 00:15:39;;;;;;;10.27;4.93;;;;;;;17.31;100.00;101006.53;7398271;19;20450;-59
2022/06/18 00:18:13;;;;;;;8.40;5.13;;;;;;;17.23;100.00;101002.91;7401319;19;20483;-56
2022/06/18 00:20:45;;;;;;;10.87;4.80;;;;;;;17.11;100.00;101001.81;7397289;19;20510;-59
2022/06/18 00:23:16;;;;;;;8.77;4.47;;;;;;;17.06;100.00;101003.47;7394817;19;20784;-58
2022/06/18 00:25:48;;;;;;;7.17;4.30;;;;;;;17.02;100.00;100993.81;7398977;19;20916;-58
2022/06/18 00:28:20;;;;;;;7.27;4.30;;;;;;;16.96;100.00;100989.34;7395301;19;20467;-59
2022/06/18 00:30:53;;;;;;;7.93;4.30;;;;;;;16.97;100.00;100977.22;7398655;19;20410;-58
2022/06/18 00:33:29;;;;;;;9.87;4.73;;;;;;;16.93;100.00;100972.78;7373936;19;20413;-60
2022/06/18 00:36:02;;;;;;;8.97;5.10;;;;;;;16.95;100.00;100976.28;7398967;19;20385;-58
2022/06/18 00:38:37;;;;;;;9.60;4.60;;;;;;;16.92;100.00;100965.81;7392681;19;20502;-59
2022/06/18 00:41:08;;;;;;;8.27;4.90;;;;;;;16.86;100.00;100959.63;7398439;19;20428;-59
2022/06/18 00:43:48;;;;;;;6.77;4.63;;;;;;;16.83;100.00;100954.34;7390093;19;20439;-59
2022/06/18 00:46:23;;;;;;;14.70;8.77;;;;;;;16.78;100.00;100948.19;7397634;19;20404;-58
2022/06/18 00:49:03;;;;;;;5.87;4.43;;;;;;;16.76;100.00;100939.44;7392704;19;20427;-58
2022/06/18 00:51:37;;;;;;;7.80;4.47;;;;;;;16.73;100.00;100937.66;7398736;19;20432;-60
2022/06/18 00:54:13;;;;;;;15.70;10.03;;;;;;;16.75;100.00;100929.88;7389091;19;20441;-59
2022/06/18 00:56:57;;;;;;;8.37;4.63;;;;;;;16.72;100.00;100920.28;7396541;19;20382;-58
2022/06/18 00:59:31;;;;;;;8.47;4.73;;;;;;;16.72;100.00;100919.44;7383628;19;20474;-59
2022/06/18 01:02:01;;;;;;;10.93;5.20;;;;;;;16.74;100.00;100909.91;7392713;19;20393;-57
2022/06/18 01:04:35;;;;;;;7.90;4.60;;;;;;;16.73;100.00;100918.56;7383952;19;20827;-57
2022/06/18 01:07:07;;;;;;;13.40;7.50;;;;;;;16.74;100.00;100905.59;7395834;19;20383;-59
2022/06/18 01:09:38;;;;;;;6.03;4.27;;;;;;;16.75;100.00;100906.44;7385973;19;20435;-59
2022/06/18 01:12:09;;;;;;;10.13;4.37;;;;;;;16.72;100.00;100906.41;7393597;19;20409;-56
2022/06/18 01:14:40;;;;;;;7.47;4.83;;;;;;;16.66;100.00;100906.28;7385260;19;20425;-59
2022/06/18 01:17:10;;;;;;;10.83;4.70;;;;;;;16.64;100.00;100900.16;7392909;19;20397;-59
2022/06/18 01:19:47;;;;;;;6.70;4.47;;;;;;;16.59;100.00;100895.75;7384640;19;20516;-59
2022/06/18 01:22:29;;;;;;;7.13;4.43;;;;;;;16.57;100.00;100893.97;7390329;19;20885;-58
2022/06/18 01:25:05;;;;;;;7.50;4.77;;;;;;;16.56;100.00;100890.47;7388665;19;20429;-55
2022/06/18 01:27:35;;;;;;;5.47;4.10;;;;;;;16.55;100.00;100880.00;7395793;19;20465;-58
2022/06/18 01:30:07;;;;;;;10.90;4.33;;;;;;;16.52;100.00;100878.25;7388137;19;20417;-58
2022/06/18 01:32:37;;;;;;;9.57;5.50;;;;;;;16.53;100.00;100877.41;7395517;19;20468;-57
2022/06/18 01:35:08;;;;;;;6.40;4.27;;;;;;;16.49;100.00;100870.38;7389065;19;20437;-58
2022/06/18 01:37:37;;;;;;;7.90;4.43;;;;;;;16.46;100.00;100857.31;7395433;19;20396;-59
2022/06/18 01:40:12;;;;;;;6.80;4.33;;;;;;;16.48;100.00;100863.41;7387441;19;20435;-58
2022/06/18 01:42:45;;;;;;;8.30;4.90;;;;;;;16.50;100.00;100853.88;7395228;19;20787;-57
2022/06/18 01:45:19;;;;;;;14.03;4.73;;;;;;;16.46;100.00;100857.31;7388106;19;20765;-59
2022/06/18 01:47:52;;;;;;;7.40;5.10;;;;;;;16.42;100.00;100845.06;7394872;19;20394;-55
2022/06/18 01:50:25;;;;;;;10.90;5.10;;;;;;;16.34;100.00;100834.50;7386978;19;20770;-58
2022/06/18 01:52:58;;;;;;;7.73;4.33;;;;;;;16.34;100.00;100831.88;7393916;19;20406;-58
2022/06/18 01:55:34;;;;;;;7.30;4.83;;;;;;;16.33;100.00;100824.94;7387873;19;20893;-59
2022/06/18 01:58:07;;;;;;;7.10;4.20;;;;;;;16.30;100.00;100832.66;7394482;19;20413;-58
2022/06/18 02:00:36;;;;;;;6.00;4.43;;;;;;;16.23;100.00;100818.69;7392183;19;20422;-58
2022/06/18 02:03:06;;;;;;;11.43;4.60;;;;;;;16.20;100.00;100813.38;7394263;19;20394;-56
2022/06/18 02:05:37;;;;;;;6.07;4.33;;;;;;;16.22;100.00;100806.50;7393106;19;20442;-57
2022/06/18 02:08:08;;;;;;;8.20;4.87;;;;;;;16.28;100.00;100808.34;7394090;19;20394;-59
2022/06/18 02:10:44;;;;;;;7.60;4.47;;;;;;;16.19;100.00;100801.22;7391977;19;20406;-59
2022/06/18 02:13:14;;;;;;;7.67;4.53;;;;;;;16.21;100.00;100794.34;7388807;19;20419;-59
2022/06/18 02:15:46;;;;;;;6.53;4.40;;;;;;;16.12;100.00;100794.16;7393660;19;20393;-57
2022/06/18 02:18:17;;;;;;;8.13;4.93;;;;;;;16.17;100.00;100787.31;7388020;19;20381;-58
2022/06/18 02:20:49;;;;;;;6.20;4.40;;;;;;;16.11;100.00;100782.88;7395632;19;20431;-59
2022/06/18 02:23:19;;;;;;;7.50;4.87;;;;;;;16.13;100.00;100782.91;7387531;19;20396;-59
2022/06/18 02:25:52;;;;;;;7.53;4.53;;;;;;;16.14;100.00;100776.84;7392607;19;20391;-59
2022/06/18 02:28:25;;;;;;;13.40;6.13;;;;;;;16.07;100.00;100762.84;7389177;19;20408;-59
2022/06/18 02:30:58;;;;;;;26.57;14.37;;;;;;;16.18;100.00;100757.84;7391565;19;20455;-59
2022/06/18 02:33:34;;;;;;;8.73;4.40;;;;;;;16.02;100.00;100762.75;7387587;19;20398;-57
2022/06/18 02:36:12;;;;;;;15.63;8.17;;;;;;;15.98;100.00;100745.34;7397256;19;20447;-57
2022/06/18 02:38:42;;;;;;;8.00;5.53;;;;;;;16.08;100.00;100745.50;7395343;19;20939;-58
2022/06/18 02:41:14;;;;;;;8.63;5.63;;;;;;;16.14;100.00;100737.81;7397776;19;20414;-59
2022/06/18 02:43:45;;;;;;;7.87;4.30;;;;;;;16.09;100.00;100748.13;7394963;19;20489;-59
2022/06/18 02:46:16;;;;;;;5.40;3.70;;;;;;;16.04;100.00;100748.06;7399237;19;20394;-59
2022/06/18 02:48:46;;;;;;;9.77;4.70;;;;;;;16.01;100.00;100741.91;7394330;19;20422;-59
2022/06/18 02:51:16;;;;;;;9.40;4.17;;;;;;;15.96;100.00;100741.84;7398023;19;20432;-59
2022/06/18 02:53:46;;;;;;;7.93;4.53;;;;;;;15.93;100.00;100737.44;7394530;19;20416;-58
2022/06/18 02:56:18;;;;;;;9.33;4.80;;;;;;;15.95;100.00;100740.09;7400326;19;20392;-58
2022/06/18 02:58:49;;;;;;;8.00;5.17;;;;;;;15.95;100.00;100734.88;7391184;19;20435;-59
2022/06/18 03:01:22;;;;;;;6.97;4.53;;;;;;;15.95;100.00;100734.88;7397738;19;20414;-59
2022/06/18 03:03:53;;;;;;;7.40;4.50;;;;;;;15.95;100.00;100734.88;7394108;19;20411;-59
2022/06/18 03:06:25;;;;;;;8.40;4.60;;;;;;;15.96;100.00;100730.53;7398410;19;20391;-59
2022/06/18 03:08:55;;;;;;;7.80;4.93;;;;;;;15.96;100.00;100731.44;7396884;19;21008;-59
2022/06/18 03:14:13;;;;;;;9.07;4.90;;;;;;;15.98;100.00;100728.81;7393407;19;20441;-59
2022/06/18 03:16:43;;;;;;;5.83;3.77;;;;;;;15.99;100.00;100731.47;7399758;19;20385;-59
2022/06/18 03:19:23;;;;;;;12.23;4.70;;;;;;;16.00;100.00;100722.81;7391506;19;20434;-58
2022/06/18 03:21:54;;;;;;;7.83;3.90;;;;;;;16.00;100.00;100722.81;7399889;19;20394;-59
2022/06/18 03:24:24;;;;;;;7.10;3.93;;;;;;;16.01;100.00;100719.34;7393026;19;20544;-59
2022/06/18 03:26:57;;;;;;;11.40;4.47;;;;;;;16.01;100.00;100728.91;7397910;19;20391;-56
2022/06/18 03:29:26;;;;;;;7.60;4.10;;;;;;;16.01;100.00;100729.75;7386236;19;20478;-58
2022/06/18 03:31:56;;;;;;;6.87;4.80;;;;;;;16.03;100.00;100722.00;7399564;19;20459;-59
2022/06/18 03:34:26;;;;;;;8.50;4.40;;;;;;;16.00;100.00;100727.16;7392054;19;20421;-59
2022/06/18 03:36:56;;;;;;;6.80;4.27;;;;;;;16.05;100.00;100718.56;7399168;19;20397;-59
2022/06/18 03:39:26;;;;;;;5.93;4.60;;;;;;;16.08;100.00;100714.25;7392183;19;20486;-59
2022/06/18 03:41:59;;;;;;;7.27;4.90;;;;;;;16.14;100.00;100714.38;7399088;19;20389;-59
2022/06/18 03:44:28;;;;;;;8.33;4.40;;;;;;;16.09;100.00;100714.31;7391159;19;20420;-58
2022/06/18 03:46:59;;;;;;;6.03;4.27;;;;;;;16.08;100.00;100715.16;7397017;19;20388;-59
2022/06/18 03:49:31;;;;;;;15.60;6.10;;;;;;;16.11;100.00;100714.34;7392227;19;20962;-57
2022/06/18 03:52:02;;;;;;;10.17;5.20;;;;;;;16.12;100.00;100708.28;7398885;19;20385;-59
2022/06/18 03:54:32;;;;;;;8.17;4.70;;;;;;;16.16;100.00;100713.56;7387524;19;20409;-60
2022/06/18 03:57:14;;;;;;;7.37;3.90;;;;;;;16.17;100.00;100706.63;7398654;19;20390;-59
2022/06/18 03:59:44;;;;;;;7.30;4.20;;;;;;;16.16;100.00;100707.50;7390248;19;20428;-57
2022/06/18 04:02:14;;;;;;;6.43;4.23;;;;;;;16.22;100.00;100701.50;7398317;19;20417;-59
2022/06/18 04:04:44;;;;;;;7.00;4.50;;;;;;;16.26;100.00;100709.38;7389240;19;20454;-59
2022/06/18 04:07:18;;;;;;;8.03;4.80;;;;;;;16.30;100.00;100708.59;7396819;19;20420;-59
2022/06/18 04:09:50;;;;;;;6.93;4.37;;;;;;;16.35;100.00;100708.69;7388547;19;21226;-59
2022/06/18 04:12:23;;;;;;;5.80;4.17;;;;;;;16.43;100.00;100708.81;7397889;19;20399;-59
2022/06/18 04:14:53;;;;;;;7.27;4.40;;;;;;;16.50;100.00;100718.47;7390819;19;20413;-59
2022/06/18 04:17:23;;;;;;;7.13;4.43;;;;;;;16.55;100.00;100724.66;7398028;19;20361;-53
2022/06/18 04:19:53;;;;;;;10.47;4.10;;;;;;;16.65;100.00;100724.78;7389399;19;21003;-59
2022/06/18 04:22:23;;;;;;;6.90;3.93;;;;;;;16.69;100.00;100718.78;7397656;19;20990;-59
2022/06/18 04:24:52;;;;;;;6.20;4.10;;;;;;;16.78;100.00;100729.38;7391542;19;20504;-58
2022/06/18 04:27:26;;;;;;;7.47;3.77;;;;;;;16.91;100.00;100729.56;7398371;19;20395;-59
2022/06/18 04:29:56;;;;;;;5.07;3.67;;;;;;;17.00;100.00;100734.88;7383508;19;20817;-57
2022/06/18 04:32:25;;;;;;;8.37;3.83;;;;;;;17.09;100.00;100744.59;7397586;19;20384;-59
2022/06/18 04:34:55;;;;;;;8.47;4.23;;;;;;;17.13;100.00;100741.19;7389744;19;20422;-57
2022/06/18 04:37:25;;;;;;;5.93;3.77;;;;;;;17.18;100.00;100738.66;7397091;19;20394;-59
2022/06/18 04:39:55;;;;;;;5.60;3.13;;;;;;;17.27;100.00;100746.59;7389838;19;20432;-59
2022/06/18 04:42:28;;;;;;;5.63;3.70;;;;;;;17.34;100.00;100751.03;7397000;19;20717;-59
2022/06/18 04:44:58;;;;;;;5.90;3.83;;;;;;;17.45;100.00;100755.53;7389642;19;20426;-58
2022/06/18 04:47:28;;;;;;;6.90;4.20;;;;;;;17.54;100.00;100753.06;7395730;19;20403;-57
2022/06/18 04:49:58;;;;;;;6.97;3.57;;;;;;;17.62;100.00;100748.78;7389231;19;20418;-58
2022/06/18 04:52:28;;;;;;;5.07;3.23;;;;;;;17.71;100.00;100757.59;7396996;19;20501;-59
2022/06/18 04:54:58;;;;;;;8.20;3.90;;;;;;;17.78;100.00;100759.41;7389849;19;20833;-59
2022/06/18 04:57:32;;;;;;;5.90;3.03;;;;;;;17.83;100.00;100768.16;7396267;19;20829;-59
2022/06/18 05:00:03;;;;;;;8.87;4.90;;;;;;;17.94;100.00;100770.91;7387962;19;20786;-59
2022/06/18 05:02:33;;;;;;;5.03;3.23;;;;;;;18.06;100.00;100780.66;7396453;19;20404;-59
2022/06/18 05:05:03;;;;;;;7.83;3.47;;;;;;;18.13;100.00;100785.06;7387948;19;20458;-59
2022/06/18 05:07:33;;;;;;;5.43;3.47;;;;;;;18.19;100.00;100779.94;7395297;19;20906;-59
2022/06/18 05:10:03;;;;;;;7.30;3.13;;;;;;;18.31;100.00;100780.91;7387981;19;21003;-58
2022/06/18 05:12:36;;;;;;;4.60;3.00;;;;;;;18.37;100.00;100767.91;7399447;19;20914;-59
2022/06/18 05:15:07;;;;;;;8.10;3.87;;;;;;;18.49;100.00;100778.47;7389422;19;20419;-59
2022/06/18 05:17:39;;;;;;;7.47;3.70;;;;;;;18.62;100.00;100783.81;7396718;19;20404;-58
2022/06/18 05:20:13;;;;;;;5.10;3.17;;;;;;;18.69;100.00;100780.41;7382866;19;20926;-59
2022/06/18 05:22:43;;;;;;;5.70;3.30;;;;;;;18.72;100.00;100777.78;7395780;19;20412;-58
2022/06/18 05:25:17;;;;;;;6.60;3.80;;;;;;;18.86;100.00;100787.47;7388124;19;20424;-59
2022/06/18 05:27:50;;;;;;;6.33;3.60;;;;;;;18.97;100.00;100783.22;7394829;19;20415;-59
2022/06/18 05:30:25;;;;;;;7.13;3.80;;;;;;;19.05;100.00;100798.09;7380652;19;20431;-59
2022/06/18 05:32:55;;;;;;;7.63;3.20;;;;;;;19.10;100.00;100785.94;7395458;19;20384;-59
2022/06/18 05:35:25;;;;;;;7.00;3.97;;;;;;;19.14;100.00;100788.59;7386816;19;20423;-59
2022/06/18 05:37:54;;;;;;;6.13;3.73;;;;;;;19.28;100.00;100786.06;7395281;19;20907;-58
2022/06/18 05:40:24;;;;;;;5.40;3.13;;;;;;;19.33;100.00;100787.84;7387223;19;20436;-59
2022/06/18 05:42:57;;;;;;;5.40;3.47;;;;;;;19.42;100.00;100795.75;7394901;19;20411;-58
2022/06/18 05:45:27;;;;;;;6.90;3.90;;;;;;;19.49;100.00;100783.56;7387829;19;20422;-59
2022/06/18 05:47:57;;;;;;;7.10;3.10;;;;;;;19.53;100.00;100782.75;7394030;19;20397;-59
2022/06/18 05:50:27;;;;;;;5.93;3.77;;;;;;;19.58;100.00;100785.38;7385375;19;20431;-59
2022/06/18 05:52:57;;;;;;;9.77;4.00;;;;;;;19.68;100.00;100797.59;7394713;19;20443;-60
2022/06/18 05:55:27;;;;;;;7.73;3.90;;;;;;;19.73;100.00;100803.75;7387182;19;20442;-59
2022/06/18 05:58:00;;;;;;;11.33;4.40;;;;;;;19.75;100.00;100806.38;7394582;19;20396;-60
2022/06/18 06:00:32;;;;;;;5.93;4.10;;;;;;;19.78;100.00;100802.03;7381182;19;20968;-60
2022/06/18 06:03:02;;;;;;;6.73;4.40;;;;;;;19.83;100.00;100805.53;7394420;19;20740;-57
2022/06/18 06:05:32;;;;;;;12.67;7.17;;;;;;;19.90;100.00;100797.72;7387817;19;20500;-59
2022/06/18 06:08:02;;;;;;;7.30;4.60;;;;;;;19.83;100.00;100805.53;7393213;19;20458;-60
2022/06/18 06:13:22;;;;;;;7.50;4.77;;;;;;;19.88;100.00;100810.78;7386648;19;20383;-60
2022/06/18 06:15:53;;;;;;;7.10;4.60;;;;;;;19.93;100.00;100800.31;7392860;19;20957;-59
2022/06/18 06:18:29;;;;;;;9.77;4.67;;;;;;;19.96;100.00;100798.63;7385148;19;20392;-59
2022/06/18 06:21:00;;;;;;;10.90;4.20;;;;;;;20.03;100.00;100796.91;7392409;19;20479;-58
2022/06/18 06:23:30;;;;;;;9.43;5.13;;;;;;;20.06;100.00;100790.81;7386844;19;20387;-60
2022/06/18 06:26:00;;;;;;;9.07;5.07;;;;;;;20.08;100.00;100800.44;7393915;19;20930;-60
2022/06/18 06:28:33;;;;;;;8.87;5.17;;;;;;;20.13;100.00;100796.94;7386078;19;20730;-59
2022/06/18 06:31:06;;;;;;;9.10;5.37;;;;;;;20.18;100.00;100798.72;7392445;19;20430;-58
2022/06/18 06:33:37;;;;;;;6.80;4.97;;;;;;;20.20;100.00;100799.56;7385591;19;20429;-59
2022/06/18 06:36:07;;;;;;;7.90;4.57;;;;;;;20.31;100.00;100802.22;7393954;19;20387;-60
2022/06/18 06:38:38;;;;;;;12.53;5.00;;;;;;;20.35;100.00;100803.09;7386907;19;20434;-59
2022/06/18 06:41:08;;;;;;;12.20;5.40;;;;;;;20.41;100.00;100808.34;7390967;19;20419;-59
2022/06/18 06:43:41;;;;;;;18.13;5.83;;;;;;;20.44;100.00;100802.22;7385925;19;20403;-60
2022/06/18 06:46:13;;;;;;;7.40;4.67;;;;;;;20.51;100.00;100798.78;7392962;19;20379;-60
2022/06/18 06:48:44;;;;;;;7.50;4.70;;;;;;;20.58;100.00;100811.00;7380420;19;20423;-59
2022/06/18 06:51:16;;;;;;;9.23;5.83;;;;;;;20.55;100.00;100802.28;7390634;19;20479;-59
2022/06/18 06:53:46;;;;;;;6.90;4.50;;;;;;;20.62;100.00;100791.78;7386301;19;20495;-57
2022/06/18 06:59:02;;;;;;;8.97;4.70;;;;;;;20.85;100.00;100801.44;7385794;19;20439;-60
2022/06/18 07:01:34;;;;;;;8.47;4.90;;;;;;;20.93;100.00;100797.94;7390723;19;20482;-59
2022/06/18 07:04:04;;;;;;;9.17;5.93;;;;;;;20.94;100.00;100812.78;7385648;19;20749;-59
2022/06/18 07:06:35;;;;;;;9.57;5.60;;;;;;;20.96;100.00;100816.31;7392725;19;20475;-60
2022/06/18 07:09:04;;;;;;;13.20;6.70;;;;;;;21.03;100.00;100812.78;7388360;19;20418;-60
2022/06/18 07:11:36;;;;;;;15.53;6.57;;;;;;;21.06;100.00;100817.16;7390174;19;20423;-59
2022/06/18 07:14:09;;;;;;;9.47;6.07;;;;;;;21.05;100.00;100818.91;7385859;19;20424;-60
2022/06/18 07:16:50;;;;;;;14.67;7.30;;;;;;;21.07;100.00;100825.00;7392603;19;20918;-59
2022/06/18 07:19:21;;;;;;;12.63;6.27;;;;;;;21.08;100.00;100832.03;7384822;19;20426;-58
2022/06/18 07:21:54;;;;;;;19.70;6.90;;;;;;;21.10;100.00;100834.63;7394892;19;20387;-59
2022/06/18 07:24:24;;;;;;;12.00;5.50;;;;;;;21.17;100.00;100821.50;7391917;19;20860;-59
2022/06/18 07:26:57;;;;;;;13.50;5.77;;;;;;;21.33;100.00;100821.47;7399807;19;20390;-58
2022/06/18 07:29:30;;;;;;;11.20;5.80;;;;;;;21.40;100.00;100817.97;7381758;19;20443;-60
2022/06/18 07:32:12;;;;;;;11.27;6.10;;;;;;;21.50;100.00;100821.47;7399158;19;20376;-60
2022/06/18 07:34:53;;;;;;;11.03;6.67;;;;;;;21.52;100.00;100818.81;7388824;19;21140;-59
2022/06/18 07:37:26;;;;;;;10.23;6.10;;;;;;;21.63;100.00;100816.16;7398852;19;20390;-60
2022/06/18 07:39:56;;;;;;;10.40;5.97;;;;;;;21.72;100.00;100813.53;7391584;19;20822;-59
2022/06/18 07:42:26;;;;;;;10.97;7.13;;;;;;;21.73;100.00;100820.53;7399027;19;20387;-60
2022/06/18 07:44:59;;;;;;;10.63;6.53;;;;;;;21.74;100.00;100834.53;7386253;19;20419;-59
2022/06/18 07:47:30;;;;;;;13.70;7.20;;;;;;;21.89;100.00;100821.34;7398841;19;20375;-59
2022/06/18 07:50:04;;;;;;;14.83;7.17;;;;;;;22.06;100.00;100817.78;7386063;19;20937;-59
2022/06/18 07:52:34;;;;;;;15.70;6.67;;;;;;;22.09;100.00;100821.25;7398907;19;20391;-60
2022/06/18 07:55:04;;;;;;;8.40;6.27;;;;;;;22.07;100.00;100819.50;7392088;19;20412;-60
2022/06/18 07:57:34;;;;;;;12.37;7.70;;;;;;;22.10;100.00;100825.63;7398464;19;20383;-59
2022/06/18 08:00:08;;;;;;;10.20;6.13;;;;;;;22.18;100.00;100816.81;7389239;19;20419;-58
2022/06/18 08:02:43;;;;;;;13.97;7.10;;;;;;;22.05;100.00;100826.53;7397248;19;20407;-60
2022/06/18 08:05:15;;;;;;;12.37;7.40;;;;;;;22.03;100.00;100828.28;7389325;19;20477;-59
2022/06/18 08:08:13;;;;;;;10.33;7.53;;;;;;;21.95;100.00;100821.31;7393196;19;20424;-57
2022/06/18 08:11:03;;;;;;;23.10;14.30;;;;;;;22.09;100.00;100823.00;7398604;19;20458;-60
2022/06/18 08:13:38;;;;;;;18.67;11.10;;;;;;;22.22;100.00;100829.06;7390568;19;20399;-59
2022/06/18 08:16:12;;;;;;;16.33;7.97;;;;;;;22.28;100.00;100823.78;7398582;19;20743;-60
2022/06/18 08:18:44;;;;;;;24.90;14.50;;;;;;;22.43;100.00;100825.44;7383766;19;20422;-60
2022/06/18 08:21:17;;;;;;;19.53;11.00;;;;;;;22.40;100.00;100828.06;7395215;19;20431;-59
2022/06/18 08:23:48;;;;;;;20.23;10.17;;;;;;;22.43;100.00;100827.19;7383183;19;20482;-59
2022/06/18 08:26:18;;;;;;;13.47;8.27;;;;;;;22.49;100.00;100828.03;7400927;19;20408;-60
2022/06/18 08:28:49;;;;;;;14.97;7.60;;;;;;;22.54;100.00;100824.53;7389148;19;20480;-60
2022/06/18 08:31:23;;;;;;;24.13;13.37;;;;;;;22.58;100.00;100820.97;7395269;19;20490;-59
2022/06/18 08:33:54;;;;;;;19.43;10.50;;;;;;;22.54;100.00;100824.53;7380479;19;20407;-60
2022/06/18 08:36:26;;;;;;;12.10;8.17;;;;;;;22.61;100.00;100832.34;7396533;19;20982;-60
2022/06/18 08:38:57;;;;;;;21.00;13.37;;;;;;;22.56;100.00;100838.53;7382952;19;20941;-59
2022/06/18 08:42:05;;;;;;;17.00;9.80;;;;;;;22.58;100.00;100828.88;7395311;19;20427;-58
2022/06/18 08:45:17;;;;;;;15.90;9.43;;;;;;;22.65;100.00;100833.19;7387769;19;21221;-59
2022/06/18 08:48:21;;;;;;;36.10;17.43;;;;;;;22.70;100.00;100831.41;7395390;19;20407;-60
2022/06/18 08:51:08;;;;;;;27.57;15.03;;;;;;;22.83;100.00;100852.34;7392410;19;20419;-59
2022/06/18 09:04:17;;;;;;;16.83;7.70;;;;;;;22.89;100.00;100873.34;7366772;19;20459;-60
2022/06/18 09:07:00;;;;;;;21.97;9.97;;;;;;;23.04;100.00;100860.09;7397683;19;20416;-60
2022/06/18 09:09:41;;;;;;;12.23;8.60;;;;;;;23.19;100.00;100858.19;7387885;19;20459;-59
2022/06/18 09:12:36;;;;;;;21.93;11.50;;;;;;;23.30;100.00;100866.91;7394726;19;20386;-60
2022/06/18 09:15:10;;;;;;;11.87;7.43;;;;;;;23.26;100.00;100865.13;7381457;19;21010;-59
2022/06/18 09:18:14;;;;;;;15.43;10.00;;;;;;;23.03;100.00;100879.34;7395227;19;20415;-57
2022/06/18 09:21:19;;;;;;;13.10;8.73;;;;;;;23.12;100.00;100867.03;7369495;19;20434;-60
2022/06/18 09:23:55;;;;;;;13.53;7.17;;;;;;;23.08;100.00;100868.81;7388877;19;20415;-59
2022/06/18 09:26:27;;;;;;;20.40;8.27;;;;;;;23.06;100.00;100881.97;7395065;19;20891;-60
2022/06/18 09:29:01;;;;;;;32.43;15.60;;;;;;;22.83;100.00;100904.94;7381675;19;20433;-59
2022/06/18 09:31:35;;;;;;;21.87;12.07;;;;;;;22.88;100.00;100909.31;7393442;19;20435;-60
2022/06/18 09:34:11;;;;;;;18.10;8.37;;;;;;;22.92;100.00;100916.28;7380420;19;20486;-59
2022/06/18 09:36:46;;;;;;;16.60;6.90;;;;;;;22.85;100.00;100918.94;7395332;19;20387;-60
2022/06/18 09:39:19;;;;;;;17.00;8.27;;;;;;;22.95;100.00;100920.63;7381737;19;20426;-57
2022/06/18 09:41:59;;;;;;;22.83;13.10;;;;;;;22.78;100.00;100944.44;7394859;19;20391;-60
2022/06/18 09:44:39;;;;;;;13.90;7.10;;;;;;;22.90;100.00;100923.31;7390106;19;20426;-59
2022/06/18 09:47:15;;;;;;;16.10;7.30;;;;;;;22.89;100.00;100923.31;7394491;19;20415;-60
2022/06/18 09:49:51;;;;;;;26.50;14.37;;;;;;;22.98;100.00;100920.63;7386233;19;20411;-60
2022/06/18 09:52:39;;;;;;;18.30;8.30;;;;;;;23.05;100.00;100916.19;7394346;19;20388;-60
2022/06/18 09:55:12;;;;;;;21.10;8.87;;;;;;;23.08;100.00;100921.44;7385686;19;20765;-60
2022/06/18 09:57:55;;;;;;;8.83;5.47;;;;;;;23.06;100.00;100905.66;7394445;19;20408;-60
2022/06/18 10:09:50;;;;;;;11.93;5.83;;;;;;;23.19;100.00;100908.19;7369196;19;20430;-59
2022/06/18 10:12:25;;;;;;;20.83;10.50;;;;;;;23.10;100.00;100902.97;7393559;19;20928;-60
2022/06/18 10:14:59;;;;;;;18.97;11.07;;;;;;;22.75;100.00;100908.50;7386825;19;20752;-59
2022/06/18 10:17:57;;;;;;;10.07;4.10;;;;;;;23.04;100.00;100911.81;7398163;19;20379;-60
2022/06/18 10:21:02;;;;;;;16.33;8.97;;;;;;;23.02;100.00;100917.06;7370249;19;20427;-60
2022/06/18 10:23:49;;;;;;;9.93;5.90;;;;;;;23.28;100.00;100918.63;7383701;19;20970;-59
2022/06/18 10:26:31;;;;;;;9.13;4.97;;;;;;;23.26;100.00;100914.25;7395556;19;20391;-60
2022/06/18 10:29:06;;;;;;;12.33;6.00;;;;;;;23.25;100.00;100942.34;7388244;19;20452;-60
2022/06/18 10:31:52;;;;;;;7.53;3.77;;;;;;;23.35;100.00;100934.38;7391494;19;20422;-60
2022/06/18 10:34:33;;;;;;;22.63;10.87;;;;;;;23.15;100.00;100953.81;7384496;19;20443;-57
2022/06/18 10:37:10;;;;;;;23.07;11.90;;;;;;;22.99;100.00;100943.41;7393263;19;20424;-59
2022/06/18 10:40:09;;;;;;;21.20;6.47;;;;;;;22.98;100.00;100936.41;7384480;19;20986;-59
2022/06/18 10:42:54;;;;;;;18.53;5.97;;;;;;;22.93;100.00;100932.94;7392789;19;20391;-60
2022/06/18 10:45:37;;;;;;;16.73;8.00;;;;;;;22.87;100.00;100938.25;7385557;19;20424;-59
2022/06/18 10:48:13;;;;;;;8.33;3.07;;;;;;;23.15;100.00;100943.28;7393417;19;20387;-59
2022/06/18 10:50:45;;;;;;;10.87;3.90;;;;;;;23.35;100.00;100935.28;7388894;19;20411;-58
2022/06/18 10:53:16;;;;;;;7.10;3.23;;;;;;;23.46;100.00;100928.16;7389821;19;20403;-59
2022/06/18 10:55:47;;;;;;;18.40;8.50;;;;;;;23.49;100.00;100931.63;7392639;19;20396;-59
2022/06/18 10:58:20;;;;;;;14.00;6.50;;;;;;;23.69;100.00;100934.09;7393554;19;20443;-59
2022/06/18 11:01:00;;;;;;;30.57;14.17;;;;;;;23.74;100.00;100932.28;7397261;19;20439;-60
2022/06/18 11:03:32;;;;;;;10.53;5.30;;;;;;;24.01;100.00;100930.22;7391169;19;20379;-59
2022/06/18 11:06:08;;;;;;;10.00;3.60;;;;;;;23.53;100.00;100921.06;7400086;19;20419;-60
2022/06/18 11:08:41;;;;;;;15.73;8.70;;;;;;;23.85;100.00;100927.75;7392930;19;20419;-59
2022/06/18 11:11:12;;;;;;;10.67;4.30;;;;;;;24.10;100.00;100932.78;7396521;19;20396;-60
2022/06/18 11:13:48;;;;;;;17.20;8.60;;;;;;;24.07;100.00;100951.28;7373801;19;20788;-59
2022/06/18 11:16:20;;;;;;;15.83;5.07;;;;;;;23.94;100.00;100941.72;7400539;19;20913;-59
2022/06/18 11:18:58;;;;;;;6.73;3.53;;;;;;;23.85;100.00;100935.66;7375369;19;20407;-60
2022/06/18 11:21:32;;;;;;;8.80;3.30;;;;;;;23.63;100.00;100949.94;7396364;19;20423;-57
2022/06/18 11:24:08;;;;;;;7.97;3.57;;;;;;;23.66;100.00;100944.63;7391950;19;20769;-60
2022/06/18 11:26:42;;;;;;;15.10;7.57;;;;;;;23.84;100.00;100948.88;7399265;19;20411;-60
2022/06/18 11:29:28;;;;;;;8.60;3.90;;;;;;;23.57;100.00;100938.59;7391043;19;20421;-60
2022/06/18 11:32:00;;;;;;;12.23;5.73;;;;;;;23.72;100.00;100950.72;7396610;19;20384;-60
2022/06/18 11:34:32;;;;;;;15.37;7.80;;;;;;;23.63;100.00;100956.06;7390815;19;20490;-60
2022/06/18 11:37:13;;;;;;;8.33;3.40;;;;;;;23.65;100.00;100963.97;7398799;19;20742;-59
2022/06/18 11:39:43;;;;;;;17.00;8.47;;;;;;;23.80;100.00;100961.19;7395211;19;20499;-60
2022/06/18 11:42:33;;;;;;;4.80;1.63;;;;;;;23.92;100.00;100961.94;7398506;19;20402;-60
2022/06/18 11:45:17;;;;;;;9.40;5.83;;;;;;;23.86;100.00;100954.97;7392094;19;20850;-59
2022/06/18 11:47:51;;;;;;;8.97;4.20;;;;;;;23.83;100.00;100953.25;7398808;19;20387;-59
2022/06/18 11:50:26;;;;;;;3.37;1.57;;;;;;;23.96;100.00;100950.47;7384036;19;20407;-60
2022/06/18 11:53:16;;;;;;;8.27;2.97;;;;;;;24.07;100.00;100960.94;7398113;19;20388;-59
2022/06/18 11:55:49;;;;;;;15.83;5.20;;;;;;;24.26;100.00;100962.44;7395833;19;20414;-59
2022/06/18 11:58:37;;;;;;;7.57;2.67;;;;;;;24.26;100.00;100958.97;7393269;19;20405;-60
2022/06/18 12:01:22;;;;;;;2.70;1.20;;;;;;;24.13;100.00;100960.84;7395183;19;20431;-60
2022/06/18 12:03:55;;;;;;;12.73;5.73;;;;;;;23.84;100.00;100969.94;7390962;19;20411;-59
2022/06/18 12:06:35;;;;;;;11.33;5.90;;;;;;;23.59;100.00;100955.22;7398199;19;20390;-59
2022/06/18 12:09:27;;;;;;;11.27;6.20;;;;;;;23.36;100.00;100959.81;7392718;19;20427;-59
2022/06/18 12:12:11;;;;;;;11.67;3.73;;;;;;;23.53;100.00;100954.44;7396069;19;20926;-60
2022/06/18 12:14:46;;;;;;;16.17;8.10;;;;;;;23.70;100.00;100962.16;7391493;19;20483;-59